PAFA/FAI METAR and TAF weather

Enter ICAO airport designator
Station Type Date Time Source
PAFA METAR 2021/07/27 21:53 UTC NOAA

PAFA 272153Z 23008KT 10SM FEW060 BKN080 OVC100 19/10 A2991 RMK AO2 SLP132 T01890100 $


Station Type Date Time Source
PAFA Decoded METAR 2021/07/27 21:53 UTC NOAA

Fairbanks, Fairbanks International Airport, AK, United States (PAFA) 64-48-14N 147-52-34W 140M
Jul 27, 2021 - 05:53 PM EDT / 2021.07.27 2153 UTC
Wind: from the SW (230 degrees) at 9 MPH (8 KT):0
Visibility: 10 mile(s):0
Sky conditions: overcast
Temperature: 66.0 F (18.9 C)
Dew Point: 50.0 F (10.0 C)
Relative Humidity: 56%
Pressure (altimeter): 29.91 in. Hg (1012 hPa)
ob: PAFA 272153Z 23008KT 10SM FEW060 BKN080 OVC100 19/10 A2991 RMK AO2 SLP132 T01890100
cycle: 22

Station Type Date Time Source
PAFA TAF 2021/07/27 18:57 UTC NOAA

TAF PAFA 271740Z 2718/2824 20005KT P6SM VCSH FEW060 BKN080
FM280000 23006KT 6SM -RA BKN025 OVC050
FM280500 24008KT 3SM -RA BR OVC012
FM281600 21006KT 6SM -RA BR BKN015 OVC040

Example: see airport list